Weather at Angoulême-Brie-Champniers Airport

Public forecast

Using degrees Celsius for public forecast. Weather courtesy of forecast.io.

Current aviation weather report (METAR) for Angoulême-Brie-Champniers Airport

Retrieved 2021/08/01 00:30 UTC (7 minutes ago):

LFBU 010030Z AUTO 23002KT CAVOK 14/12 Q1015

Aviation forecast (TAF) for Angoulême-Brie-Champniers Airport

Forecast is more than 6 hours old.

Retrieved 2021/07/31 18:00 UTC (7 hours ago):

TAF LFBU 311700Z 3118/0118 26010KT 9999 SCT040 BKN080 PROB40 TEMPO 3118/3121 4000 -SHRA BKN030TCU PROB40 TEMPO 0103/0106 3000 BR TEMPO 0106/0109 BKN005 TEMPO 0109/0115 3000 SHRA BKN030TCU